Barraute, Canada
Current Conditions -  °F | °C
As of 7:00 PM on Sunday 21 Dec 2014 (Local Time) from CYVO Reporting Station
Clear Clear  
Wind Chill:   Ceiling: Unl
Heat Index: 12°   Visibility: 15mi
Dew Point: 10°   Wind: 6mph
Humidity: 92%   Direction: 170°S
Pressure: 30.24"   Gusts: NA
Location:  48.43°N, 77.63°W
Report Text: CYVO 220000Z 17005KT 15SM SKC M11/M12 A3024 RMK SLP278
Loading
Personal Weather Stations






























Interactive Weather Map New forecast layout! Learn more

10-Day Weather Forecast

Advertisements
Track Severe Weather on mobile